Time;durP1;ratioP1;P1;durP2;ratioP2;P2;SDS_P1;SDS_P2;PMS_P1;PMS_P2;Temp;Humidity;BMP_temperature;BMP_pressure;BME280_temperature;BME280_humidity;BME280_pressure;Samples;Min_cycle;Max_cycle;Signal;HPM_P1;HPM_P2
2024/02/14 00:02:04;;;;;;;;;;;;;;;2.88;97.53;96977.75;107929;1289;22518;-86
2024/02/14 00:04:31;;;;;;;;;;;;;;;2.88;97.35;96979.27;107971;1289;22583;-86
2024/02/14 00:06:57;;;;;;;;;;;;;;;2.90;97.44;96981.02;107930;1283;25527;-86
2024/02/14 00:09:24;;;;;;;;;;;;;;;2.93;98.18;96983.37;107964;1277;22514;-86
2024/02/14 00:11:50;;;;;;;;;;;;;;;2.96;98.68;96984.98;108059;1283;22567;-86
2024/02/14 00:14:17;;;;;;;;;;;;;;;2.99;98.70;96983.52;107937;1289;24220;-86
2024/02/14 00:16:43;;;;;;;;;;;;;;;3.03;98.49;96983.09;107964;1289;23109;-86
2024/02/14 00:19:09;;;;;;;;;;;;;;;3.04;98.81;96981.30;107958;1289;22531;-86
2024/02/14 00:21:37;;;;;;;;;;;;;;;3.06;98.99;96982.48;107897;1285;22521;-87
2024/02/14 00:24:04;;;;;;;;;;;;;;;3.07;99.16;96982.59;107961;1289;23349;-87
2024/02/14 00:26:31;;;;;;;;;;;;;;;3.05;98.87;96981.52;107990;1289;24300;-86
2024/02/14 00:28:57;;;;;;;;;;;;;;;3.02;98.95;96983.47;108098;1289;24459;-87
2024/02/14 00:31:23;;;;;;;;;;;;;;;2.98;99.16;96985.30;107945;1289;22509;-86
2024/02/14 00:33:50;;;;;;;;;;;;;;;2.96;99.32;96987.55;108095;1283;23247;-86
2024/02/14 00:36:17;;;;;;;;;;;;;;;2.95;99.24;96983.55;107939;1289;22527;-86
2024/02/14 00:38:44;;;;;;;;;;;;;;;2.95;99.82;96984.73;107969;1281;22540;-86
2024/02/14 00:41:10;;;;;;;;;;;;;;;2.95;99.89;96983.02;108114;1289;22524;-86
2024/02/14 00:43:38;;;;;;;;;;;;;;;2.93;99.93;96988.61;107953;1273;22582;-86
2024/02/14 00:46:05;;;;;;;;;;;;;;;2.92;100.00;96986.33;108057;1282;22524;-86
2024/02/14 00:48:34;;;;;;;;;;;;;;;2.89;99.91;96987.76;107965;1283;22527;-86
2024/02/14 00:51:00;;;;;;;;;;;;;;;2.87;100.00;96985.18;108052;1281;24985;-86
2024/02/14 00:53:27;;;;;;;;;;;;;;;2.85;100.00;96981.91;108041;1283;23327;-86
2024/02/14 00:55:53;;;;;;;;;;;;;;;2.84;100.00;96989.17;107941;1289;25370;-86
2024/02/14 00:58:20;;;;;;;;;;;;;;;2.84;100.00;96988.34;107972;1289;22526;-86
2024/02/14 01:00:46;;;;;;;;;;;;;;;2.84;99.98;96989.15;107905;1289;22531;-86
2024/02/14 01:03:15;;;;;;;;;;;;;;;2.86;99.96;96989.70;108057;1289;22512;-87
2024/02/14 01:05:41;;;;;;;;;;;;;;;2.88;99.93;96987.64;108150;1277;22511;-87
2024/02/14 01:08:07;;;;;;;;;;;;;;;2.90;99.90;96986.27;107947;1286;24133;-86
2024/02/14 01:10:34;;;;;;;;;;;;;;;2.91;99.67;96985.70;108001;1289;25358;-86
2024/02/14 01:13:00;;;;;;;;;;;;;;;2.91;99.84;96986.38;107971;1289;22570;-86
2024/02/14 01:15:27;;;;;;;;;;;;;;;2.91;99.76;96982.59;107971;1289;22559;-87
2024/02/14 01:17:53;;;;;;;;;;;;;;;2.92;99.49;96983.79;107956;1289;22524;-87
2024/02/14 01:20:20;;;;;;;;;;;;;;;2.91;98.87;96981.97;107947;1289;23220;-86
2024/02/14 01:22:46;;;;;;;;;;;;;;;2.91;99.30;96980.20;107993;1289;25367;-86
2024/02/14 01:25:13;;;;;;;;;;;;;;;2.91;98.50;96975.63;107863;1289;22538;-86
2024/02/14 01:27:40;;;;;;;;;;;;;;;2.88;97.89;96976.05;108130;1287;22515;-87
2024/02/14 01:30:07;;;;;;;;;;;;;;;2.85;98.86;96977.11;108020;1289;24256;-87
2024/02/14 01:32:33;;;;;;;;;;;;;;;2.83;99.02;96975.06;108052;1289;22539;-86
2024/02/14 01:35:00;;;;;;;;;;;;;;;2.81;99.42;96974.52;108107;1282;24411;-86
2024/02/14 01:37:29;;;;;;;;;;;;;;;2.78;99.33;96971.66;107889;1285;22930;-86
2024/02/14 01:39:55;;;;;;;;;;;;;;;2.74;99.31;96970.12;108129;1289;26236;-86
2024/02/14 01:42:22;;;;;;;;;;;;;;;2.68;98.73;96969.56;108007;1289;22560;-86
2024/02/14 01:44:49;;;;;;;;;;;;;;;2.62;99.12;96969.98;108148;1286;22578;-86
2024/02/14 01:47:15;;;;;;;;;;;;;;;2.57;99.71;96965.93;108109;1289;22538;-86
2024/02/14 01:49:44;;;;;;;;;;;;;;;2.54;99.92;96966.90;108044;1280;22558;-87
2024/02/14 01:52:10;;;;;;;;;;;;;;;2.50;99.91;96966.55;107979;1283;25267;-86
2024/02/14 01:54:37;;;;;;;;;;;;;;;2.45;99.91;96964.98;107939;1289;23176;-86
2024/02/14 01:57:03;;;;;;;;;;;;;;;2.40;99.84;96961.23;107888;1289;22535;-86
2024/02/14 01:59:30;;;;;;;;;;;;;;;2.35;99.75;96964.34;107824;1286;22518;-87
2024/02/14 02:01:56;;;;;;;;;;;;;;;2.32;100.00;96965.31;108109;1289;22565;-87
2024/02/14 02:04:24;;;;;;;;;;;;;;;2.29;100.00;96964.02;108083;1289;22543;-86
2024/02/14 02:06:51;;;;;;;;;;;;;;;2.28;100.00;96963.00;108044;1289;22555;-86
2024/02/14 02:09:18;;;;;;;;;;;;;;;2.28;100.00;96964.40;107992;1289;23829;-86
2024/02/14 02:11:48;;;;;;;;;;;;;;;2.28;100.00;96965.77;107959;1289;22594;-86
2024/02/14 02:14:16;;;;;;;;;;;;;;;2.30;100.00;96963.96;108062;1289;22538;-87
2024/02/14 02:16:42;;;;;;;;;;;;;;;2.30;100.00;96963.40;108101;1289;22547;-86
2024/02/14 02:19:09;;;;;;;;;;;;;;;2.31;100.00;96963.35;107973;1283;25215;-86
2024/02/14 02:21:35;;;;;;;;;;;;;;;2.32;100.00;96964.42;107989;1280;22556;-86
2024/02/14 02:24:02;;;;;;;;;;;;;;;2.34;100.00;96969.05;107985;1285;24277;-86
2024/02/14 02:26:29;;;;;;;;;;;;;;;2.35;100.00;96968.13;107920;1286;22585;-86
2024/02/14 02:28:55;;;;;;;;;;;;;;;2.34;99.98;96966.14;108150;1280;22525;-87
2024/02/14 02:31:21;;;;;;;;;;;;;;;2.33;100.00;96964.38;108087;1274;26441;-86
2024/02/14 02:33:49;;;;;;;;;;;;;;;2.32;100.00;96961.41;108045;1289;22566;-86
2024/02/14 02:36:16;;;;;;;;;;;;;;;2.29;100.00;96961.09;108100;1282;22542;-87
2024/02/14 02:38:43;;;;;;;;;;;;;;;2.27;100.00;96966.36;107954;1286;25239;-86
2024/02/14 02:41:10;;;;;;;;;;;;;;;2.26;100.00;96969.69;108018;1289;26419;-86
2024/02/14 02:43:37;;;;;;;;;;;;;;;2.26;100.00;96971.39;108045;1289;22543;-86
2024/02/14 02:46:04;;;;;;;;;;;;;;;2.27;100.00;96974.23;107969;1289;22542;-86
2024/02/14 02:48:31;;;;;;;;;;;;;;;2.28;100.00;96971.40;108037;1289;22515;-86
2024/02/14 02:50:58;;;;;;;;;;;;;;;2.30;100.00;96973.34;107955;1280;23107;-86
2024/02/14 02:53:24;;;;;;;;;;;;;;;2.32;100.00;96972.09;108024;1289;22544;-86
2024/02/14 02:55:52;;;;;;;;;;;;;;;2.40;100.00;96977.33;107869;1286;22597;-87
2024/02/14 02:58:20;;;;;;;;;;;;;;;2.46;100.00;96977.62;107908;1289;25460;-86
2024/02/14 03:00:49;;;;;;;;;;;;;;;2.53;100.00;96976.75;107928;1289;22560;-86
2024/02/14 03:03:16;;;;;;;;;;;;;;;2.59;100.00;96978.98;108106;1285;23373;-86
2024/02/14 03:05:44;;;;;;;;;;;;;;;2.65;100.00;96982.27;108067;1285;22515;-86
2024/02/14 03:08:14;;;;;;;;;;;;;;;2.71;100.00;96982.80;107938;1287;22533;-86
2024/02/14 03:10:41;;;;;;;;;;;;;;;2.74;100.00;96983.82;107944;1288;22535;-86
2024/02/14 03:13:11;;;;;;;;;;;;;;;2.78;100.00;96985.23;107974;1283;22522;-87
2024/02/14 03:15:38;;;;;;;;;;;;;;;2.80;100.00;96991.85;107944;1283;22520;-87
2024/02/14 03:18:09;;;;;;;;;;;;;;;2.79;100.00;96990.77;107925;1289;22610;-86
2024/02/14 03:20:35;;;;;;;;;;;;;;;2.77;100.00;96991.64;107968;1289;27632;-87
2024/02/14 03:23:03;;;;;;;;;;;;;;;2.74;100.00;96993.75;108017;1289;22541;-86
2024/02/14 03:25:30;;;;;;;;;;;;;;;2.69;100.00;96994.26;107855;1290;22511;-86
2024/02/14 03:27:58;;;;;;;;;;;;;;;2.63;99.95;96993.36;108130;1289;22533;-86
2024/02/14 03:30:24;;;;;;;;;;;;;;;2.55;99.91;96989.38;108093;1289;22529;-86
2024/02/14 03:32:52;;;;;;;;;;;;;;;2.48;100.00;96986.17;108006;1283;22528;-86
2024/02/14 03:35:20;;;;;;;;;;;;;;;2.40;100.00;96987.95;108029;1289;22521;-86
2024/02/14 03:37:52;;;;;;;;;;;;;;;2.30;99.99;96989.55;107898;1289;22532;-86
2024/02/14 03:40:20;;;;;;;;;;;;;;;2.19;99.96;96987.35;108019;1289;22549;-86
2024/02/14 03:42:47;;;;;;;;;;;;;;;2.10;99.76;96994.34;108016;1289;22529;-86
2024/02/14 03:45:13;;;;;;;;;;;;;;;2.04;99.83;96995.59;107814;1286;22532;-86
2024/02/14 03:47:41;;;;;;;;;;;;;;;2.03;99.97;96995.52;107958;1283;22632;-86
2024/02/14 03:50:08;;;;;;;;;;;;;;;2.01;99.82;96998.61;107935;1283;24481;-86
2024/02/14 03:52:34;;;;;;;;;;;;;;;1.98;99.41;97002.58;107890;1286;22660;-86
2024/02/14 03:55:02;;;;;;;;;;;;;;;1.93;99.34;97001.39;107948;1290;22663;-87
2024/02/14 03:57:28;;;;;;;;;;;;;;;1.88;99.23;97004.48;107956;1283;22517;-86
2024/02/14 03:59:55;;;;;;;;;;;;;;;1.85;99.13;97007.16;107947;1283;22618;-86
2024/02/14 04:02:23;;;;;;;;;;;;;;;1.78;98.98;97002.83;107833;1287;22574;-86
2024/02/14 04:04:49;;;;;;;;;;;;;;;1.76;99.22;97000.91;107880;1290;22518;-86
2024/02/14 04:07:16;;;;;;;;;;;;;;;1.75;99.03;97003.90;107962;1290;23288;-86
2024/02/14 04:09:42;;;;;;;;;;;;;;;1.70;99.07;97003.57;107908;1287;23102;-86
2024/02/14 04:12:10;;;;;;;;;;;;;;;1.64;99.00;97005.92;107964;1290;22564;-86
2024/02/14 04:14:37;;;;;;;;;;;;;;;1.58;98.55;97003.95;107962;1290;22518;-86
2024/02/14 04:17:04;;;;;;;;;;;;;;;1.56;98.72;97004.82;107978;1290;22584;-86
2024/02/14 04:19:30;;;;;;;;;;;;;;;1.54;98.90;97006.10;107920;1283;23319;-86
2024/02/14 04:21:57;;;;;;;;;;;;;;;1.57;98.99;97005.55;107919;1290;22545;-86
2024/02/14 04:24:23;;;;;;;;;;;;;;;1.59;98.90;97008.64;107927;1283;22649;-86
2024/02/14 04:26:49;;;;;;;;;;;;;;;1.62;98.68;97008.48;107963;1286;24784;-86
2024/02/14 04:29:16;;;;;;;;;;;;;;;1.61;98.22;97009.58;107872;1291;22559;-86
2024/02/14 04:31:43;;;;;;;;;;;;;;;1.60;98.37;97008.63;107909;1290;23144;-86
2024/02/14 04:34:10;;;;;;;;;;;;;;;1.60;98.41;97008.55;107971;1290;22537;-86
2024/02/14 04:36:36;;;;;;;;;;;;;;;1.62;98.43;97009.13;107818;1287;22523;-85
2024/02/14 04:39:03;;;;;;;;;;;;;;;1.63;98.18;97010.77;108005;1290;22561;-86
2024/02/14 04:41:30;;;;;;;;;;;;;;;1.61;97.80;97012.07;108024;1290;22526;-86
2024/02/14 04:43:57;;;;;;;;;;;;;;;1.62;97.96;97016.11;107779;1289;23835;-85
2024/02/14 04:46:25;;;;;;;;;;;;;;;1.66;98.37;97016.87;107903;1283;22536;-85
2024/02/14 04:48:53;;;;;;;;;;;;;;;1.65;97.90;97020.35;107928;1283;22548;-86
2024/02/14 04:51:19;;;;;;;;;;;;;;;1.58;97.75;97017.98;108088;1283;22524;-85
2024/02/14 04:53:46;;;;;;;;;;;;;;;1.49;97.70;97018.95;107852;1286;22566;-86
2024/02/14 04:56:12;;;;;;;;;;;;;;;1.41;97.10;97023.96;107947;1284;22558;-86
2024/02/14 04:58:39;;;;;;;;;;;;;;;1.37;97.05;97026.14;107850;1289;22548;-86
2024/02/14 05:01:07;;;;;;;;;;;;;;;1.32;96.81;97025.98;107987;1289;25075;-86
2024/02/14 05:03:33;;;;;;;;;;;;;;;1.23;96.73;97022.52;107971;1289;24252;-86
2024/02/14 05:06:02;;;;;;;;;;;;;;;1.19;97.02;97029.27;107972;1289;22604;-86
2024/02/14 05:08:29;;;;;;;;;;;;;;;1.15;96.45;97030.05;108079;1289;22543;-86
2024/02/14 05:10:55;;;;;;;;;;;;;;;1.12;96.53;97035.07;108101;1289;23480;-86
2024/02/14 05:13:21;;;;;;;;;;;;;;;1.10;96.55;97035.52;107985;1284;22537;-85
2024/02/14 05:15:48;;;;;;;;;;;;;;;1.12;96.87;97034.90;108089;1289;22521;-85
2024/02/14 05:18:15;;;;;;;;;;;;;;;1.10;97.04;97038.08;107997;1283;22528;-86
2024/02/14 05:20:42;;;;;;;;;;;;;;;1.08;97.28;97037.91;109326;1287;23246;-87
2024/02/14 05:23:10;;;;;;;;;;;;;;;1.05;97.57;97035.04;109507;1283;22394;-87
2024/02/14 05:25:37;;;;;;;;;;;;;;;1.03;98.10;97035.86;109634;1283;22425;-87
2024/02/14 05:28:04;;;;;;;;;;;;;;;1.02;98.30;97032.02;109470;1283;22405;-87
2024/02/14 05:30:31;;;;;;;;;;;;;;;1.00;98.22;97032.00;109157;1277;23274;-87
2024/02/14 05:32:58;;;;;;;;;;;;;;;0.98;98.13;97032.63;107900;1289;22514;-86
2024/02/14 05:35:24;;;;;;;;;;;;;;;0.97;98.12;97029.45;108048;1283;25349;-86
2024/02/14 05:37:51;;;;;;;;;;;;;;;0.97;98.14;97028.64;107937;1289;22561;-86
2024/02/14 05:40:18;;;;;;;;;;;;;;;0.97;98.18;97028.58;107909;1277;22505;-86
2024/02/14 05:42:44;;;;;;;;;;;;;;;0.98;98.17;97030.96;107848;1286;22556;-87
2024/02/14 05:45:11;;;;;;;;;;;;;;;0.98;98.77;97029.58;107825;1286;22521;-86
2024/02/14 05:47:39;;;;;;;;;;;;;;;0.99;98.82;97029.72;107944;1283;22587;-86
2024/02/14 05:50:08;;;;;;;;;;;;;;;0.99;98.67;97028.65;108066;1286;22676;-87
2024/02/14 05:52:35;;;;;;;;;;;;;;;0.99;99.03;97027.30;107971;1273;22514;-86
2024/02/14 05:55:03;;;;;;;;;;;;;;;0.97;98.80;97027.77;108058;1289;22520;-86
2024/02/14 05:57:29;;;;;;;;;;;;;;;0.94;98.84;97030.52;107989;1289;22563;-86
2024/02/14 05:59:56;;;;;;;;;;;;;;;0.90;99.04;97030.61;108133;1284;22542;-87
2024/02/14 06:02:22;;;;;;;;;;;;;;;0.88;99.42;97027.50;107922;1289;25442;-86
2024/02/14 06:04:49;;;;;;;;;;;;;;;0.86;99.50;97029.73;108069;1289;22526;-86
2024/02/14 06:07:15;;;;;;;;;;;;;;;0.86;99.42;97033.29;107875;1286;22604;-86
2024/02/14 06:09:42;;;;;;;;;;;;;;;0.87;99.48;97034.05;107960;1289;22529;-86
2024/02/14 06:12:08;;;;;;;;;;;;;;;0.89;99.74;97036.79;107876;1289;22529;-86
2024/02/14 06:14:36;;;;;;;;;;;;;;;0.94;99.71;97036.34;108013;1289;22528;-86
2024/02/14 06:17:02;;;;;;;;;;;;;;;0.96;99.49;97038.76;108013;1285;22562;-86
2024/02/14 06:19:29;;;;;;;;;;;;;;;0.97;99.34;97038.98;108013;1289;22522;-86
2024/02/14 06:21:56;;;;;;;;;;;;;;;0.99;99.22;97042.66;108155;1284;22530;-86
2024/02/14 06:24:22;;;;;;;;;;;;;;;1.02;99.32;97047.23;108119;1283;22520;-86
2024/02/14 06:26:49;;;;;;;;;;;;;;;1.03;99.26;97045.45;108065;1289;23321;-86
2024/02/14 06:29:15;;;;;;;;;;;;;;;1.03;99.35;97047.83;108054;1277;22553;-86
2024/02/14 06:31:42;;;;;;;;;;;;;;;1.00;99.05;97048.85;107976;1283;25340;-86
2024/02/14 06:34:08;;;;;;;;;;;;;;;0.97;99.21;97054.02;107977;1281;22532;-86
2024/02/14 06:36:35;;;;;;;;;;;;;;;0.96;99.62;97055.14;108027;1285;22535;-86
2024/02/14 06:39:02;;;;;;;;;;;;;;;0.93;99.49;97056.67;107915;1281;24259;-86
2024/02/14 06:41:29;;;;;;;;;;;;;;;0.93;99.80;97055.14;107949;1281;22520;-86
2024/02/14 06:43:57;;;;;;;;;;;;;;;0.93;99.81;97057.56;107971;1289;22516;-86
2024/02/14 06:46:25;;;;;;;;;;;;;;;0.96;99.97;97067.58;107930;1289;22509;-86
2024/02/14 06:48:51;;;;;;;;;;;;;;;0.98;99.86;97065.77;107910;1289;22531;-86
2024/02/14 06:51:20;;;;;;;;;;;;;;;0.99;99.97;97067.52;107928;1289;24387;-86
2024/02/14 06:53:46;;;;;;;;;;;;;;;1.00;99.69;97065.06;107917;1289;22557;-86
2024/02/14 06:56:12;;;;;;;;;;;;;;;1.03;100.00;97066.59;107949;1289;22528;-87
2024/02/14 06:58:39;;;;;;;;;;;;;;;1.04;99.97;97064.14;107956;1289;22530;-86
2024/02/14 07:01:05;;;;;;;;;;;;;;;1.04;100.00;97065.34;107961;1289;22512;-86
2024/02/14 07:03:32;;;;;;;;;;;;;;;1.02;99.93;97067.35;107974;1289;22908;-86
2024/02/14 07:05:58;;;;;;;;;;;;;;;1.01;99.64;97067.45;108015;1289;24414;-86
2024/02/14 07:08:27;;;;;;;;;;;;;;;1.00;99.83;97065.73;108013;1289;22526;-86
2024/02/14 07:10:54;;;;;;;;;;;;;;;1.02;99.96;97070.39;107900;1289;22533;-86
2024/02/14 07:13:20;;;;;;;;;;;;;;;1.04;100.00;97067.34;108080;1289;22944;-86
2024/02/14 07:15:47;;;;;;;;;;;;;;;1.05;100.00;97070.73;107848;1289;25262;-86
2024/02/14 07:18:13;;;;;;;;;;;;;;;1.06;100.00;97068.73;108025;1283;23248;-86
2024/02/14 07:20:40;;;;;;;;;;;;;;;1.10;100.00;97069.48;108086;1282;22527;-86
2024/02/14 07:23:06;;;;;;;;;;;;;;;1.14;100.00;97073.83;107963;1283;22540;-86
2024/02/14 07:25:33;;;;;;;;;;;;;;;1.16;100.00;97070.92;107948;1281;22545;-86
2024/02/14 07:27:59;;;;;;;;;;;;;;;1.17;100.00;97071.07;108057;1281;22539;-86
2024/02/14 07:30:25;;;;;;;;;;;;;;;1.18;100.00;97072.33;107956;1289;22532;-86
2024/02/14 07:32:52;;;;;;;;;;;;;;;1.19;100.00;97065.96;108086;1281;22576;-86
2024/02/14 07:35:19;;;;;;;;;;;;;;;1.20;100.00;97067.59;108081;1289;22540;-86
2024/02/14 07:37:46;;;;;;;;;;;;;;;1.22;100.00;97066.31;108108;1289;22521;-86
2024/02/14 07:40:13;;;;;;;;;;;;;;;1.24;100.00;97064.46;108082;1289;22533;-86
2024/02/14 07:42:39;;;;;;;;;;;;;;;1.26;100.00;97062.40;108052;1289;22516;-86
2024/02/14 07:45:07;;;;;;;;;;;;;;;1.28;100.00;97062.27;108015;1289;22505;-86
2024/02/14 07:47:33;;;;;;;;;;;;;;;1.29;100.00;97059.27;107932;1289;22563;-86
2024/02/14 07:50:00;;;;;;;;;;;;;;;1.32;100.00;97060.48;107958;1283;22516;-86
2024/02/14 07:52:26;;;;;;;;;;;;;;;1.33;100.00;97065.14;107958;1289;22634;-86
2024/02/14 07:54:54;;;;;;;;;;;;;;;1.35;100.00;97065.54;107967;1289;25920;-86
2024/02/14 07:57:22;;;;;;;;;;;;;;;1.38;100.00;97068.73;108072;1271;22578;-86
2024/02/14 07:59:48;;;;;;;;;;;;;;;1.40;100.00;97069.42;108134;1289;22514;-86
2024/02/14 08:02:14;;;;;;;;;;;;;;;1.42;100.00;97071.66;107975;1289;22539;-86
2024/02/14 08:04:41;;;;;;;;;;;;;;;1.44;100.00;97070.84;107976;1276;25239;-86
2024/02/14 08:07:08;;;;;;;;;;;;;;;1.46;100.00;97070.86;107838;1289;26853;-86
2024/02/14 08:09:35;;;;;;;;;;;;;;;1.51;100.00;97068.67;107969;1289;22530;-86
2024/02/14 08:12:01;;;;;;;;;;;;;;;1.57;100.00;97067.02;107851;1289;22531;-86
2024/02/14 08:14:28;;;;;;;;;;;;;;;1.64;100.00;97067.90;107964;1289;24277;-86
2024/02/14 08:16:54;;;;;;;;;;;;;;;1.71;100.00;97067.09;107868;1283;26665;-86
2024/02/14 08:19:20;;;;;;;;;;;;;;;1.77;99.97;97066.73;107931;1289;25322;-86
2024/02/14 08:21:47;;;;;;;;;;;;;;;1.85;99.72;97067.75;107929;1289;22552;-86
2024/02/14 08:24:13;;;;;;;;;;;;;;;1.91;99.83;97068.52;108034;1289;22525;-87
2024/02/14 08:26:40;;;;;;;;;;;;;;;1.96;99.51;97069.86;107924;1289;23897;-86
2024/02/14 08:29:06;;;;;;;;;;;;;;;2.04;98.92;97070.48;107792;1289;22523;-86
2024/02/14 08:31:33;;;;;;;;;;;;;;;2.10;99.08;97074.63;107941;1287;26610;-86
2024/02/14 08:34:00;;;;;;;;;;;;;;;2.15;99.10;97073.63;107921;1289;22517;-86
2024/02/14 08:36:26;;;;;;;;;;;;;;;2.18;98.41;97066.85;107884;1289;22566;-86
2024/02/14 08:38:52;;;;;;;;;;;;;;;2.25;97.97;97065.02;107948;1289;22922;-86
2024/02/14 08:41:19;;;;;;;;;;;;;;;2.32;98.15;97064.48;108071;1289;22528;-86
2024/02/14 08:43:49;;;;;;;;;;;;;;;2.33;98.20;97064.50;107830;1289;22540;-86
2024/02/14 08:46:17;;;;;;;;;;;;;;;2.36;96.95;97073.02;107944;1287;22516;-86
2024/02/14 08:48:45;;;;;;;;;;;;;;;2.43;96.62;97069.48;107930;1289;27361;-86
2024/02/14 08:51:13;;;;;;;;;;;;;;;2.48;96.94;97070.10;108125;1289;22828;-87
2024/02/14 08:53:42;;;;;;;;;;;;;;;2.50;96.34;97069.76;109509;1289;22538;-87
2024/02/14 08:56:09;;;;;;;;;;;;;;;2.57;96.41;97072.34;108008;1282;22522;-86
2024/02/14 08:58:35;;;;;;;;;;;;;;;2.63;95.92;97075.35;107980;1281;23224;-86
2024/02/14 09:01:02;;;;;;;;;;;;;;;2.69;96.09;97077.55;108011;1289;22635;-87
2024/02/14 09:03:30;;;;;;;;;;;;;;;2.75;95.78;97079.86;107967;1289;23596;-86
2024/02/14 09:05:58;;;;;;;;;;;;;;;2.79;95.20;97078.02;107989;1289;22515;-86
2024/02/14 09:08:24;;;;;;;;;;;;;;;2.85;95.11;97078.61;107987;1283;22532;-86
2024/02/14 09:10:50;;;;;;;;;;;;;;;2.92;94.46;97076.70;107943;1289;24266;-86
2024/02/14 09:13:17;;;;;;;;;;;;;;;2.98;93.98;97073.97;107896;1289;24480;-86
2024/02/14 09:15:43;;;;;;;;;;;;;;;3.06;94.00;97073.23;108063;1286;22502;-86
2024/02/14 09:18:10;;;;;;;;;;;;;;;3.12;94.06;97069.88;107972;1289;22528;-86
2024/02/14 09:20:37;;;;;;;;;;;;;;;3.18;94.43;97064.77;107555;1289;449468;-86
2024/02/14 09:23:04;;;;;;;;;;;;;;;3.24;94.39;97061.67;107910;1289;22523;-86
2024/02/14 09:25:30;;;;;;;;;;;;;;;3.35;93.47;97064.11;107935;1289;23117;-86
2024/02/14 09:27:57;;;;;;;;;;;;;;;3.46;93.47;97063.73;107923;1289;22533;-86
2024/02/14 09:30:24;;;;;;;;;;;;;;;3.57;93.17;97064.23;107984;1289;22565;-86
2024/02/14 09:32:50;;;;;;;;;;;;;;;3.67;91.95;97061.05;107934;1289;22731;-86
2024/02/14 09:35:17;;;;;;;;;;;;;;;3.77;90.52;97062.61;108082;1289;23182;-86
2024/02/14 09:37:43;;;;;;;;;;;;;;;3.91;89.58;97064.94;108017;1283;22560;-87
2024/02/14 09:40:12;;;;;;;;;;;;;;;4.04;90.12;97062.67;108158;1285;22548;-89
2024/02/14 09:42:48;;;;;;;;;;;;;;;4.15;90.13;97066.20;108024;1283;23220;-84
2024/02/14 09:45:15;;;;;;;;;;;;;;;4.29;89.29;97070.30;108097;1285;22511;-85
2024/02/14 09:47:41;;;;;;;;;;;;;;;4.36;88.35;97068.67;108062;1284;22522;-85
2024/02/14 09:50:08;;;;;;;;;;;;;;;4.38;88.11;97070.83;107899;1289;22522;-85
2024/02/14 09:52:34;;;;;;;;;;;;;;;4.42;88.47;97069.38;108034;1289;22549;-85
2024/02/14 09:55:02;;;;;;;;;;;;;;;4.43;87.51;97074.94;108035;1289;24267;-85
2024/02/14 09:57:29;;;;;;;;;;;;;;;4.45;87.52;97074.59;107921;1289;22520;-85
2024/02/14 09:59:56;;;;;;;;;;;;;;;4.48;87.59;97070.38;108113;1287;22545;-85
2024/02/14 10:02:22;;;;;;;;;;;;;;;4.55;86.47;97066.05;108116;1289;25299;-84
2024/02/14 10:04:49;;;;;;;;;;;;;;;4.61;86.46;97063.27;107925;1289;22573;-85
2024/02/14 10:07:15;;;;;;;;;;;;;;;4.67;85.90;97064.70;108094;1289;23184;-85
2024/02/14 10:09:42;;;;;;;;;;;;;;;4.74;86.74;97066.84;107997;1289;22531;-84
2024/02/14 10:12:09;;;;;;;;;;;;;;;4.80;86.31;97067.35;107940;1289;22543;-84
2024/02/14 10:14:36;;;;;;;;;;;;;;;4.90;86.36;97062.08;107902;1288;22570;-84
2024/02/14 10:17:07;;;;;;;;;;;;;;;4.99;87.35;97058.73;108447;1286;24245;-85
2024/02/14 10:19:34;;;;;;;;;;;;;;;5.07;86.77;97066.13;108111;1289;22517;-84
2024/02/14 10:22:02;;;;;;;;;;;;;;;5.16;87.15;97066.73;108154;1289;22540;-85
2024/02/14 10:24:30;;;;;;;;;;;;;;;5.22;86.00;97067.07;107981;1289;27643;-84
2024/02/14 10:27:00;;;;;;;;;;;;;;;5.26;85.95;97066.83;107909;1289;22525;-85
2024/02/14 10:29:26;;;;;;;;;;;;;;;5.31;85.54;97061.77;108033;1289;24026;-84
2024/02/14 10:31:53;;;;;;;;;;;;;;;5.34;85.34;97059.59;108030;1289;22563;-84
2024/02/14 10:34:20;;;;;;;;;;;;;;;5.38;85.48;97058.26;108020;1289;22517;-84
2024/02/14 10:36:47;;;;;;;;;;;;;;;5.41;85.24;97057.27;107792;1289;22540;-84
2024/02/14 10:39:15;;;;;;;;;;;;;;;5.47;85.15;97055.40;107998;1289;22546;-84
2024/02/14 10:41:42;;;;;;;;;;;;;;;5.55;84.81;97060.40;108047;1289;22531;-85
2024/02/14 10:44:10;;;;;;;;;;;;;;;5.62;83.87;97056.34;108009;1290;22542;-85
2024/02/14 10:46:38;;;;;;;;;;;;;;;5.69;84.08;97056.56;107980;1283;22531;-85
2024/02/14 10:49:05;;;;;;;;;;;;;;;5.77;83.93;97054.64;107999;1288;24885;-85
2024/02/14 10:51:33;;;;;;;;;;;;;;;5.86;83.82;97059.52;107946;1290;22523;-84
2024/02/14 10:54:00;;;;;;;;;;;;;;;5.93;83.51;97054.97;107942;1285;26469;-85
2024/02/14 10:56:28;;;;;;;;;;;;;;;6.00;83.34;97055.95;108065;1287;22567;-85
2024/02/14 10:58:55;;;;;;;;;;;;;;;6.05;82.30;97056.20;107955;1290;22525;-84
2024/02/14 11:01:24;;;;;;;;;;;;;;;6.12;82.11;97056.10;108003;1280;22616;-85
2024/02/14 11:03:51;;;;;;;;;;;;;;;6.15;82.21;97048.86;107978;1290;22569;-85
2024/02/14 11:06:17;;;;;;;;;;;;;;;6.16;81.70;97048.51;108001;1290;22574;-85
2024/02/14 11:08:57;;;;;;;;;;;;;;;6.16;82.19;97038.87;108001;1285;22548;-85
2024/02/14 11:11:24;;;;;;;;;;;;;;;6.17;81.84;97036.30;108000;1290;22556;-85
2024/02/14 11:13:54;;;;;;;;;;;;;;;6.18;81.33;97033.31;108016;1290;22544;-85
2024/02/14 11:16:28;;;;;;;;;;;;;;;6.21;81.52;97030.77;108038;1290;22548;-84
2024/02/14 11:19:10;;;;;;;;;;;;;;;6.24;81.97;97027.06;108164;1283;22523;-84
2024/02/14 11:21:37;;;;;;;;;;;;;;;6.28;82.34;97023.31;107984;1290;22511;-85
2024/02/14 11:24:04;;;;;;;;;;;;;;;6.30;81.91;97027.89;108823;1290;25577;-85
2024/02/14 11:26:37;;;;;;;;;;;;;;;6.33;81.82;97025.04;107968;1290;22527;-85
2024/02/14 11:29:03;;;;;;;;;;;;;;;6.35;80.19;97026.63;107813;1291;22524;-85
2024/02/14 11:31:34;;;;;;;;;;;;;;;6.37;80.22;97022.16;107922;1283;22582;-85
2024/02/14 11:34:05;;;;;;;;;;;;;;;6.40;79.69;97024.08;107919;1286;22533;-85
2024/02/14 11:36:32;;;;;;;;;;;;;;;6.42;79.29;97023.91;107983;1286;22542;-85
2024/02/14 11:38:58;;;;;;;;;;;;;;;6.46;80.11;97023.89;107976;1290;22557;-85
2024/02/14 11:41:27;;;;;;;;;;;;;;;6.51;80.07;97024.80;107993;1290;22529;-85
2024/02/14 11:43:54;;;;;;;;;;;;;;;6.52;79.33;97020.28;107965;1289;22544;-85
2024/02/14 11:46:21;;;;;;;;;;;;;;;6.53;79.34;97020.47;108072;1289;22533;-85
2024/02/14 11:48:48;;;;;;;;;;;;;;;6.53;78.42;97016.88;107948;1283;25387;-84
2024/02/14 11:51:14;;;;;;;;;;;;;;;6.53;78.19;97012.04;108021;1289;22617;-86
2024/02/14 11:53:41;;;;;;;;;;;;;;;6.54;78.58;97011.11;107874;1284;22493;-85
2024/02/14 11:56:08;;;;;;;;;;;;;;;6.55;77.62;97008.02;108007;1288;22656;-85
2024/02/14 11:58:34;;;;;;;;;;;;;;;6.58;77.38;97005.92;107985;1289;22519;-85
2024/02/14 12:01:04;;;;;;;;;;;;;;;6.59;77.49;96998.39;107917;1290;22576;-85
2024/02/14 12:03:30;;;;;;;;;;;;;;;6.62;77.78;96994.48;108441;1280;22522;-85
2024/02/14 12:05:57;;;;;;;;;;;;;;;6.66;77.10;96993.98;107892;1289;22539;-85
2024/02/14 12:08:23;;;;;;;;;;;;;;;6.69;77.09;96995.30;108022;1289;22527;-85
2024/02/14 12:10:50;;;;;;;;;;;;;;;6.71;76.74;96990.08;108109;1287;22542;-85
2024/02/14 12:13:17;;;;;;;;;;;;;;;6.72;76.49;96990.88;107928;1288;22522;-85
2024/02/14 12:15:44;;;;;;;;;;;;;;;6.73;75.67;96986.81;107980;1286;22998;-85
2024/02/14 12:18:11;;;;;;;;;;;;;;;6.74;75.63;96983.98;107970;1289;22639;-85
2024/02/14 12:20:38;;;;;;;;;;;;;;;6.74;75.66;96985.14;107988;1288;22555;-85
2024/02/14 12:23:05;;;;;;;;;;;;;;;6.78;75.87;96987.35;107973;1289;22603;-85
2024/02/14 12:25:32;;;;;;;;;;;;;;;6.82;75.21;96986.13;108127;1285;25328;-85
2024/02/14 12:28:00;;;;;;;;;;;;;;;6.83;75.18;96984.94;108697;1284;24227;-85
2024/02/14 12:30:45;;;;;;;;;;;;;;;6.86;75.04;96982.69;108004;1289;22530;-85
2024/02/14 12:33:12;;;;;;;;;;;;;;;6.88;75.02;96981.77;109310;1283;22427;-83
2024/02/14 12:35:43;;;;;;;;;;;;;;;6.91;75.34;96985.88;108201;1289;24550;-85
2024/02/14 12:38:10;;;;;;;;;;;;;;;6.97;75.67;96984.52;108066;1289;22538;-85
2024/02/14 12:40:36;;;;;;;;;;;;;;;7.03;75.63;96982.72;108021;1289;22578;-85
2024/02/14 12:43:05;;;;;;;;;;;;;;;7.11;75.73;96986.66;107977;1289;24553;-85
2024/02/14 12:45:33;;;;;;;;;;;;;;;7.18;74.73;96983.86;108098;1289;22536;-85